Time;durP1;ratioP1;P1;durP2;ratioP2;P2;SDS_P1;SDS_P2;PMS_P1;PMS_P2;Temp;Humidity;BMP_temperature;BMP_pressure;BME280_temperature;BME280_humidity;BME280_pressure;Samples;Min_cycle;Max_cycle;Signal;HPM_P1;HPM_P2
2021/01/10 00:00:15;;;;;;;10.90;7.47;;;0.50;99.90;;;;;;5055934;28;20535;-56
2021/01/10 00:02:42;;;;;;;10.25;7.25;;;1.10;99.90;;;;;;5071094;28;20182;-56
2021/01/10 00:05:09;;;;;;;10.50;7.13;;;0.90;99.90;;;;;;5066817;28;20554;-56
2021/01/10 00:07:35;;;;;;;11.23;7.65;;;1.10;99.90;;;;;;5070094;28;20834;-56
2021/01/10 00:10:01;;;;;;;10.37;7.53;;;1.10;99.90;;;;;;5067829;28;20196;-56
2021/01/10 00:12:28;;;;;;;9.23;7.10;;;1.00;99.90;;;;;;5063522;28;20450;-56
2021/01/10 00:14:55;;;;;;;12.48;8.93;;;1.00;99.90;;;;;;5052053;28;20236;-56
2021/01/10 00:17:21;;;;;;;9.75;7.60;;;1.30;99.90;;;;;;5068609;28;20565;-56
2021/01/10 00:19:48;;;;;;;10.23;7.20;;;0.90;99.90;;;;;;5070031;28;20208;-56
2021/01/10 00:22:16;;;;;;;11.68;7.38;;;1.20;99.90;;;;;;5070561;28;20462;-57
2021/01/10 00:24:42;;;;;;;10.07;7.53;;;0.80;99.90;;;;;;5061800;28;20233;-56
2021/01/10 00:27:13;;;;;;;12.27;7.67;;;0.90;99.90;;;;;;5056544;28;20206;-57
2021/01/10 00:29:41;;;;;;;10.35;7.75;;;1.00;99.90;;;;;;5067682;28;20467;-57
2021/01/10 00:32:07;;;;;;;10.77;8.20;;;0.90;99.90;;;;;;5069737;28;20193;-56
2021/01/10 00:34:33;;;;;;;10.00;7.60;;;0.60;99.90;;;;;;5061156;28;20234;-55
2021/01/10 00:37:07;;;;;;;10.70;6.90;;;0.40;99.90;;;;;;5059313;28;20185;-55
2021/01/10 00:39:34;;;;;;;10.38;8.23;;;0.80;99.90;;;;;;5069959;28;20212;-56
2021/01/10 00:42:04;;;;;;;13.85;9.65;;;0.90;99.90;;;;;;5069242;28;20177;-56
2021/01/10 00:44:29;;;;;;;11.80;8.52;;;0.90;99.90;;;;;;5058462;28;20185;-56
2021/01/10 00:46:55;;;;;;;13.20;9.00;;;0.90;99.90;;;;;;5067679;28;20194;-55
2021/01/10 00:49:21;;;;;;;12.57;9.53;;;1.00;99.90;;;;;;5071316;28;20648;-56
2021/01/10 00:51:49;;;;;;;13.67;10.20;;;1.00;99.90;;;;;;5065702;28;20643;-55
2021/01/10 00:54:15;;;;;;;14.60;9.90;;;0.70;99.90;;;;;;5057318;28;20653;-56
2021/01/10 00:56:40;;;;;;;15.80;10.53;;;0.60;99.90;;;;;;5061065;28;20275;-56
2021/01/10 00:59:07;;;;;;;14.33;11.20;;;0.80;99.90;;;;;;5067668;28;20207;-56
2021/01/10 01:01:32;;;;;;;16.42;11.73;;;0.50;99.90;;;;;;5067005;28;20272;-55
2021/01/10 01:03:58;;;;;;;16.23;12.50;;;0.20;99.90;;;;;;5069358;28;20570;-57
2021/01/10 01:06:23;;;;;;;14.73;11.40;;;0.50;99.90;;;;;;5062157;28;20192;-56
2021/01/10 01:08:49;;;;;;;17.40;11.93;;;0.50;99.90;;;;;;5062384;28;20207;-56
2021/01/10 01:11:15;;;;;;;20.50;12.70;;;0.50;99.90;;;;;;5081843;28;20190;-59
2021/01/10 01:13:40;;;;;;;17.60;12.17;;;0.70;99.90;;;;;;5064628;28;20554;-56
2021/01/10 01:16:07;;;;;;;20.60;13.60;;;0.50;99.90;;;;;;5060737;28;20220;-56
2021/01/10 01:18:34;;;;;;;20.38;14.35;;;0.50;99.90;;;;;;5062750;28;20216;-56
2021/01/10 01:21:00;;;;;;;18.30;13.63;;;0.70;99.90;;;;;;5069521;28;20181;-56
2021/01/10 01:23:28;;;;;;;17.95;12.40;;;0.70;99.90;;;;;;5069246;28;20184;-57
2021/01/10 01:25:54;;;;;;;19.65;13.23;;;0.80;99.90;;;;;;5063469;28;20299;-55
2021/01/10 01:28:20;;;;;;;17.67;12.90;;;0.70;99.90;;;;;;5068812;28;20322;-56
2021/01/10 01:30:45;;;;;;;17.75;13.25;;;0.70;99.90;;;;;;5064133;28;20297;-56
2021/01/10 01:33:11;;;;;;;18.33;13.77;;;0.40;99.90;;;;;;5062944;28;20723;-55
2021/01/10 01:35:36;;;;;;;17.77;14.10;;;0.90;99.90;;;;;;5064727;28;20199;-56
2021/01/10 01:38:02;;;;;;;17.67;12.30;;;0.90;99.90;;;;;;5064415;28;20674;-57
2021/01/10 01:40:28;;;;;;;19.23;13.80;;;0.30;99.90;;;;;;5058749;28;20208;-56
2021/01/10 01:42:53;;;;;;;18.57;13.83;;;0.60;99.90;;;;;;5066777;28;20272;-57
2021/01/10 01:45:19;;;;;;;20.63;14.07;;;0.70;99.90;;;;;;5067374;28;20177;-57
2021/01/10 01:47:45;;;;;;;17.67;13.50;;;0.60;99.90;;;;;;5061019;28;20964;-56
2021/01/10 01:50:10;;;;;;;20.53;14.77;;;0.60;99.90;;;;;;5061414;28;20185;-56
2021/01/10 01:52:38;;;;;;;18.87;12.50;;;0.50;99.90;;;;;;5068762;28;20224;-56
2021/01/10 01:55:05;;;;;;;20.38;14.60;;;0.80;99.90;;;;;;5058601;28;20196;-56
2021/01/10 01:57:30;;;;;;;17.17;12.77;;;0.90;99.90;;;;;;5067223;28;20232;-57
2021/01/10 01:59:56;;;;;;;17.50;13.77;;;0.60;99.90;;;;;;5068419;28;20238;-55
2021/01/10 02:02:21;;;;;;;17.43;13.00;;;0.70;99.90;;;;;;5056792;28;20208;-56
2021/01/10 02:05:00;;;;;;;15.63;12.80;;;0.70;99.90;;;;;;5060892;28;20186;-56
2021/01/10 02:07:39;;;;;;;15.88;12.82;;;0.70;99.90;;;;;;5051053;28;20202;-55
2021/01/10 02:10:11;;;;;;;17.95;12.95;;;0.80;99.90;;;;;;5054918;28;20181;-57
2021/01/10 02:12:42;;;;;;;15.98;12.57;;;0.80;99.90;;;;;;5066732;28;20650;-56
2021/01/10 02:15:15;;;;;;;17.63;12.50;;;0.60;99.90;;;;;;5061418;28;20189;-55
2021/01/10 02:17:50;;;;;;;17.15;12.48;;;0.70;99.90;;;;;;5059271;28;20210;-56
2021/01/10 02:20:24;;;;;;;19.48;12.75;;;0.80;99.90;;;;;;5062424;28;20748;-56
2021/01/10 02:22:54;;;;;;;19.35;14.00;;;0.50;99.90;;;;;;5060656;28;20659;-56
2021/01/10 02:25:22;;;;;;;16.60;12.00;;;0.60;99.90;;;;;;5058379;28;20610;-56
2021/01/10 02:27:48;;;;;;;16.77;12.80;;;0.60;99.90;;;;;;5068093;28;20193;-56
2021/01/10 02:30:15;;;;;;;16.98;12.15;;;0.70;99.90;;;;;;5067312;28;20187;-55
2021/01/10 02:32:47;;;;;;;19.48;13.60;;;0.70;99.90;;;;;;5059333;28;20272;-56
2021/01/10 02:35:15;;;;;;;16.98;12.00;;;0.60;99.90;;;;;;5055432;28;20654;-55
2021/01/10 02:38:04;;;;;;;15.18;11.52;;;0.60;99.90;;;;;;5062738;28;20209;-56
2021/01/10 02:40:33;;;;;;;16.17;12.63;;;0.60;99.90;;;;;;5064606;28;20627;-56
2021/01/10 02:43:16;;;;;;;15.88;10.80;;;0.00;99.90;;;;;;5061525;28;20194;-56
2021/01/10 02:45:45;;;;;;;15.07;11.55;;;0.50;99.90;;;;;;5068175;28;20200;-56
2021/01/10 02:48:11;;;;;;;14.88;10.57;;;0.70;99.90;;;;;;5065460;28;20270;-56
2021/01/10 02:50:37;;;;;;;16.30;10.13;;;0.30;99.90;;;;;;5068112;28;20682;-56
2021/01/10 02:53:04;;;;;;;13.02;9.43;;;0.30;99.90;;;;;;5066868;28;20659;-56
2021/01/10 02:55:30;;;;;;;12.43;10.30;;;0.40;99.90;;;;;;5057763;28;20738;-56
2021/01/10 02:58:18;;;;;;;12.60;9.65;;;0.30;99.90;;;;;;5061221;28;20232;-56
2021/01/10 03:00:45;;;;;;;14.05;9.55;;;0.30;99.90;;;;;;5062598;28;20185;-56
2021/01/10 03:03:13;;;;;;;11.70;9.50;;;0.10;99.90;;;;;;5062232;28;20188;-55
2021/01/10 03:05:39;;;;;;;12.65;9.23;;;0.10;99.90;;;;;;5061303;28;20238;-56
2021/01/10 03:08:05;;;;;;;10.00;7.90;;;-0.20;99.90;;;;;;5054290;28;20205;-55
2021/01/10 03:10:31;;;;;;;13.20;8.57;;;0.10;99.90;;;;;;5065809;28;20185;-56
2021/01/10 03:12:57;;;;;;;13.75;9.50;;;0.10;99.90;;;;;;5062187;28;20427;-56
2021/01/10 03:15:23;;;;;;;9.85;8.48;;;0.00;99.90;;;;;;5062133;28;20189;-56
2021/01/10 03:17:50;;;;;;;11.87;8.20;;;0.20;99.90;;;;;;5054632;28;20344;-56
2021/01/10 03:20:21;;;;;;;10.57;8.35;;;-0.10;99.90;;;;;;5058393;28;20242;-55
2021/01/10 03:22:48;;;;;;;11.90;8.70;;;-0.10;99.90;;;;;;5060022;28;20223;-61
2021/01/10 03:25:17;;;;;;;11.05;7.63;;;-0.50;99.90;;;;;;5069129;28;20607;-55
2021/01/10 03:27:43;;;;;;;9.85;7.40;;;-0.20;99.90;;;;;;5061227;28;20197;-55
2021/01/10 03:30:12;;;;;;;11.50;8.00;;;-0.40;99.90;;;;;;5071544;28;20196;-56
2021/01/10 03:32:40;;;;;;;11.18;8.85;;;-0.30;99.90;;;;;;5069846;28;20439;-56
2021/01/10 03:35:07;;;;;;;10.98;7.70;;;-0.30;99.90;;;;;;5060545;28;20268;-55
2021/01/10 03:37:33;;;;;;;10.32;7.90;;;-0.30;99.90;;;;;;5063941;28;20291;-56
2021/01/10 03:39:59;;;;;;;12.15;8.45;;;-0.10;99.90;;;;;;5084103;28;20275;-56
2021/01/10 03:42:24;;;;;;;13.23;8.47;;;-0.10;99.90;;;;;;5060834;28;20223;-56
2021/01/10 03:44:50;;;;;;;11.60;8.17;;;-0.40;99.90;;;;;;5057884;28;20460;-56
2021/01/10 03:47:16;;;;;;;11.47;7.93;;;-0.30;99.90;;;;;;5067319;28;20479;-56
2021/01/10 03:49:41;;;;;;;11.50;8.13;;;-0.60;99.90;;;;;;5070023;28;20205;-56
2021/01/10 03:52:07;;;;;;;12.93;9.10;;;-0.40;99.90;;;;;;5071019;28;20187;-56
2021/01/10 03:54:32;;;;;;;10.60;7.80;;;-0.40;99.90;;;;;;5061535;28;20293;-55
2021/01/10 03:56:58;;;;;;;10.53;8.30;;;-0.40;99.90;;;;;;5060253;28;20186;-55
2021/01/10 03:59:23;;;;;;;13.00;8.33;;;-0.50;99.90;;;;;;5058383;28;20232;-55
2021/01/10 04:01:49;;;;;;;11.10;7.80;;;-0.40;99.90;;;;;;5064599;28;20189;-55
2021/01/10 04:04:15;;;;;;;11.07;8.70;;;-0.30;99.90;;;;;;5063563;28;20274;-55
2021/01/10 04:06:40;;;;;;;11.60;8.07;;;-0.40;99.90;;;;;;5067589;28;20853;-56
2021/01/10 04:09:06;;;;;;;10.90;8.70;;;-0.10;99.90;;;;;;5063665;28;20269;-56
2021/01/10 04:11:32;;;;;;;12.20;8.80;;;-0.10;99.90;;;;;;5061940;28;20186;-55
2021/01/10 04:13:58;;;;;;;10.90;8.43;;;-0.70;99.90;;;;;;5065103;28;20208;-56
2021/01/10 04:16:23;;;;;;;12.13;7.85;;;-0.10;99.90;;;;;;5070902;28;20253;-56
2021/01/10 04:18:49;;;;;;;10.30;8.73;;;-0.40;99.90;;;;;;5070254;28;20607;-56
2021/01/10 04:21:15;;;;;;;12.80;8.50;;;-0.20;99.90;;;;;;5070525;28;20510;-56
2021/01/10 04:23:40;;;;;;;12.07;9.00;;;-0.20;99.90;;;;;;5064229;28;20185;-56
2021/01/10 04:26:06;;;;;;;12.20;8.53;;;0.00;99.90;;;;;;5068689;28;20185;-56
2021/01/10 04:28:32;;;;;;;12.20;8.82;;;-0.20;99.90;;;;;;5070126;28;20247;-55
2021/01/10 04:31:00;;;;;;;13.63;9.20;;;-0.10;99.90;;;;;;5055542;28;20639;-55
2021/01/10 04:33:25;;;;;;;11.48;7.65;;;0.10;99.90;;;;;;5067295;28;20200;-56
2021/01/10 04:35:51;;;;;;;14.43;10.10;;;0.10;99.90;;;;;;5079875;28;20181;-56
2021/01/10 04:38:17;;;;;;;15.20;9.50;;;0.10;99.90;;;;;;5050327;28;20701;-55
2021/01/10 04:40:44;;;;;;;13.45;9.25;;;0.00;99.90;;;;;;5068909;28;20183;-56
2021/01/10 04:43:10;;;;;;;13.07;9.35;;;-0.10;99.90;;;;;;5064350;28;20235;-56
2021/01/10 04:45:36;;;;;;;13.38;9.75;;;0.30;99.90;;;;;;5053202;28;20237;-56
2021/01/10 04:48:02;;;;;;;15.45;10.23;;;0.20;99.90;;;;;;5064719;28;20698;-56
2021/01/10 04:50:30;;;;;;;11.85;8.95;;;0.60;99.90;;;;;;5061976;28;20189;-56
2021/01/10 04:52:58;;;;;;;11.98;9.50;;;0.40;99.90;;;;;;5063605;28;20188;-56
2021/01/10 04:55:24;;;;;;;15.30;10.48;;;0.30;99.90;;;;;;5063775;28;20561;-55
2021/01/10 04:58:03;;;;;;;13.85;9.30;;;0.00;99.90;;;;;;5058013;28;20202;-56
2021/01/10 05:00:32;;;;;;;11.93;9.25;;;0.30;99.90;;;;;;5066534;28;20179;-56
2021/01/10 05:03:10;;;;;;;12.85;9.45;;;0.30;99.90;;;;;;5051535;28;20197;-56
2021/01/10 05:05:37;;;;;;;11.75;8.73;;;0.20;99.90;;;;;;5057841;28;20280;-57
2021/01/10 05:08:10;;;;;;;13.63;10.02;;;0.60;99.90;;;;;;5062726;28;20292;-55
2021/01/10 05:10:39;;;;;;;10.57;8.57;;;0.20;99.90;;;;;;5069445;28;20241;-56
2021/01/10 05:13:06;;;;;;;12.05;10.00;;;0.50;99.90;;;;;;5066922;28;20225;-56
2021/01/10 05:15:33;;;;;;;14.70;9.90;;;0.70;99.90;;;;;;5064072;28;20665;-56
2021/01/10 05:18:00;;;;;;;15.30;10.32;;;0.60;99.90;;;;;;5060477;28;20322;-56
2021/01/10 05:20:30;;;;;;;12.18;9.65;;;0.60;99.90;;;;;;5053755;28;20635;-55
2021/01/10 05:22:57;;;;;;;11.75;8.95;;;0.70;99.90;;;;;;5058223;28;20339;-55
2021/01/10 05:25:23;;;;;;;14.80;10.10;;;0.80;99.90;;;;;;5064407;28;20188;-55
2021/01/10 05:27:52;;;;;;;11.13;8.50;;;0.30;99.90;;;;;;5069748;28;20205;-55
2021/01/10 05:30:30;;;;;;;14.00;8.95;;;0.80;99.90;;;;;;5055660;28;20439;-55
2021/01/10 05:32:59;;;;;;;11.90;8.90;;;0.60;99.90;;;;;;5085251;28;20646;-55
2021/01/10 05:35:25;;;;;;;11.90;9.27;;;0.70;99.90;;;;;;5058428;28;20190;-55
2021/01/10 05:37:55;;;;;;;13.87;9.63;;;0.80;99.90;;;;;;5063240;28;20209;-55
2021/01/10 05:40:28;;;;;;;12.20;8.38;;;0.50;99.90;;;;;;5062037;28;20467;-55
2021/01/10 05:42:56;;;;;;;12.00;8.55;;;0.60;99.90;;;;;;5066139;28;20197;-56
2021/01/10 05:45:35;;;;;;;12.85;9.82;;;0.60;99.90;;;;;;5058897;28;20233;-55
2021/01/10 05:48:12;;;;;;;11.52;8.93;;;0.10;99.90;;;;;;5057042;28;20229;-55
2021/01/10 05:50:49;;;;;;;13.40;8.98;;;0.60;99.90;;;;;;5054333;28;20213;-55
2021/01/10 05:53:24;;;;;;;12.88;9.10;;;0.60;99.90;;;;;;5051488;28;20307;-55
2021/01/10 05:55:56;;;;;;;10.80;7.30;;;0.70;99.90;;;;;;5063053;28;20562;-55
2021/01/10 05:58:32;;;;;;;12.73;8.98;;;0.80;99.90;;;;;;5069846;28;20213;-55
2021/01/10 06:00:59;;;;;;;13.13;9.13;;;0.80;99.90;;;;;;5056257;28;20276;-56
2021/01/10 06:03:31;;;;;;;12.52;9.82;;;0.70;99.90;;;;;;5049588;28;20244;-55
2021/01/10 06:05:58;;;;;;;12.45;9.80;;;0.40;99.90;;;;;;5062096;28;20185;-56
2021/01/10 06:08:37;;;;;;;12.20;9.98;;;0.50;99.90;;;;;;5057940;28;21001;-56
2021/01/10 06:11:15;;;;;;;11.75;8.55;;;0.10;99.90;;;;;;5060825;28;20252;-59
2021/01/10 06:13:54;;;;;;;14.15;9.23;;;0.30;99.90;;;;;;5061736;28;20384;-59
2021/01/10 06:16:28;;;;;;;12.32;9.27;;;0.10;99.90;;;;;;5060631;28;20198;-60
2021/01/10 06:18:55;;;;;;;16.15;9.75;;;0.10;99.90;;;;;;5055491;28;20587;-58
2021/01/10 06:21:24;;;;;;;11.40;8.70;;;0.10;99.90;;;;;;5051823;28;20181;-58
2021/01/10 06:23:52;;;;;;;11.32;7.38;;;0.60;99.90;;;;;;5065286;28;20184;-57
2021/01/10 06:26:20;;;;;;;15.38;9.82;;;0.60;99.90;;;;;;5060079;28;20192;-56
2021/01/10 06:28:55;;;;;;;11.27;8.75;;;0.60;99.90;;;;;;5059201;28;20850;-55
2021/01/10 06:31:23;;;;;;;10.75;8.55;;;0.50;99.90;;;;;;5065342;28;20188;-55
2021/01/10 06:34:19;;;;;;;12.40;9.25;;;0.80;99.90;;;;;;5057427;28;20716;-55
2021/01/10 06:36:46;;;;;;;12.77;9.32;;;0.90;99.90;;;;;;5054699;28;20201;-56
2021/01/10 06:39:18;;;;;;;13.25;9.70;;;0.90;99.90;;;;;;5065518;28;20270;-56
2021/01/10 06:41:52;;;;;;;12.43;8.85;;;1.00;99.90;;;;;;5053000;28;20190;-56
2021/01/10 06:44:22;;;;;;;14.10;9.02;;;0.70;99.90;;;;;;5063115;28;20673;-54
2021/01/10 06:46:53;;;;;;;12.48;8.68;;;0.70;99.90;;;;;;5052194;28;20234;-57
2021/01/10 06:49:19;;;;;;;12.52;8.05;;;0.80;99.90;;;;;;5057123;28;20682;-56
2021/01/10 06:51:46;;;;;;;14.27;9.15;;;0.30;99.90;;;;;;5055706;28;20204;-57
2021/01/10 06:54:12;;;;;;;11.55;9.52;;;0.90;99.90;;;;;;5067366;28;20193;-56
2021/01/10 06:56:39;;;;;;;10.95;8.48;;;0.70;99.90;;;;;;5054474;28;20190;-57
2021/01/10 06:59:09;;;;;;;13.18;10.52;;;0.60;99.90;;;;;;5077375;28;20213;-55
2021/01/10 07:01:50;;;;;;;13.60;9.80;;;0.70;99.90;;;;;;5058910;28;20207;-55
2021/01/10 07:04:20;;;;;;;13.07;9.30;;;0.80;99.90;;;;;;5066004;28;20262;-57
2021/01/10 07:06:47;;;;;;;13.65;9.20;;;0.60;99.90;;;;;;5070387;28;20215;-56
2021/01/10 07:09:13;;;;;;;11.85;9.88;;;0.70;99.90;;;;;;5065033;28;20204;-56
2021/01/10 07:11:40;;;;;;;12.95;8.90;;;0.90;99.90;;;;;;5057245;28;20821;-55
2021/01/10 07:14:06;;;;;;;13.27;9.90;;;0.60;99.90;;;;;;5064221;28;20189;-56
2021/01/10 07:16:33;;;;;;;12.43;9.73;;;0.60;99.90;;;;;;5055993;28;20259;-56
2021/01/10 07:19:03;;;;;;;12.95;9.27;;;0.50;99.90;;;;;;5065182;28;20674;-57
2021/01/10 07:21:39;;;;;;;14.05;9.88;;;-0.10;99.90;;;;;;5061171;28;20181;-59
2021/01/10 07:24:16;;;;;;;13.68;9.90;;;0.60;99.90;;;;;;5055831;28;20585;-56
2021/01/10 07:26:50;;;;;;;13.32;9.95;;;0.60;99.90;;;;;;5058839;28;20188;-56
2021/01/10 07:29:32;;;;;;;14.93;9.95;;;0.60;99.90;;;;;;5073366;28;20221;-56
2021/01/10 07:32:02;;;;;;;15.85;10.40;;;0.80;99.90;;;;;;5059732;28;20290;-56
2021/01/10 07:34:29;;;;;;;13.45;9.70;;;1.00;99.90;;;;;;5063024;28;20185;-56
2021/01/10 07:37:05;;;;;;;12.88;9.73;;;0.80;99.90;;;;;;5055160;28;20677;-55
2021/01/10 07:39:37;;;;;;;12.88;9.10;;;0.90;99.90;;;;;;5062823;28;20212;-55
2021/01/10 07:42:08;;;;;;;11.55;9.20;;;1.00;99.90;;;;;;5061795;28;20185;-57
2021/01/10 07:44:54;;;;;;;15.38;9.88;;;0.90;99.90;;;;;;5070849;28;20650;-57
2021/01/10 07:47:31;;;;;;;12.15;9.32;;;0.70;99.90;;;;;;5066192;28;20189;-58
2021/01/10 07:50:18;;;;;;;15.88;10.70;;;0.80;99.90;;;;;;5057422;28;20195;-56
2021/01/10 07:52:48;;;;;;;14.63;10.20;;;0.80;99.90;;;;;;5074527;28;20192;-55
2021/01/10 07:55:23;;;;;;;15.05;10.35;;;0.50;99.90;;;;;;5063844;28;20733;-55
2021/01/10 07:58:16;;;;;;;16.15;11.05;;;1.00;99.90;;;;;;5064763;28;20196;-58
2021/01/10 08:00:45;;;;;;;11.73;9.95;;;1.00;99.90;;;;;;5058841;28;20211;-56
2021/01/10 08:03:19;;;;;;;14.60;9.85;;;1.00;99.90;;;;;;5062144;28;20193;-57
2021/01/10 08:05:59;;;;;;;13.07;9.35;;;0.80;99.90;;;;;;5068407;28;20189;-57
2021/01/10 08:08:38;;;;;;;15.20;10.25;;;0.70;99.90;;;;;;5062178;28;20205;-56
2021/01/10 08:11:04;;;;;;;14.77;10.35;;;0.70;99.90;;;;;;5062643;28;21019;-57
2021/01/10 08:13:32;;;;;;;13.83;9.83;;;0.60;99.90;;;;;;5067645;28;20192;-57
2021/01/10 08:16:01;;;;;;;11.88;9.20;;;0.80;99.90;;;;;;5070628;28;20462;-55
2021/01/10 08:18:38;;;;;;;14.68;10.35;;;0.80;99.90;;;;;;5070179;28;20299;-58
2021/01/10 08:21:09;;;;;;;12.23;9.75;;;0.80;99.90;;;;;;5071971;28;20185;-56
2021/01/10 08:23:36;;;;;;;17.92;9.95;;;0.80;99.90;;;;;;5055873;28;20196;-55
2021/01/10 08:26:08;;;;;;;15.00;11.10;;;0.90;99.90;;;;;;5064420;28;20734;-57
2021/01/10 08:28:35;;;;;;;13.15;9.98;;;0.90;99.90;;;;;;5067569;28;20300;-57
2021/01/10 08:31:02;;;;;;;14.40;10.23;;;0.80;99.90;;;;;;5053053;28;20186;-58
2021/01/10 08:33:29;;;;;;;19.33;10.45;;;0.80;99.90;;;;;;5068596;28;20193;-55
2021/01/10 08:36:06;;;;;;;10.60;9.00;;;1.00;99.90;;;;;;5054074;28;20190;-55
2021/01/10 08:38:32;;;;;;;11.60;8.85;;;1.00;99.90;;;;;;5067462;28;20217;-56
2021/01/10 08:40:58;;;;;;;13.07;9.33;;;1.20;99.90;;;;;;5070705;28;20227;-55
2021/01/10 08:43:23;;;;;;;15.80;10.20;;;1.20;99.90;;;;;;5063619;28;20258;-56
2021/01/10 08:45:49;;;;;;;13.70;10.90;;;1.50;99.90;;;;;;5062171;28;20193;-57
2021/01/10 08:48:17;;;;;;;15.07;10.37;;;1.50;99.90;;;;;;5058111;28;20236;-54
2021/01/10 08:50:43;;;;;;;13.73;11.00;;;1.50;99.90;;;;;;5062580;28;20217;-55
2021/01/10 08:53:08;;;;;;;15.90;10.50;;;1.50;99.90;;;;;;5059758;28;20209;-55
2021/01/10 08:55:36;;;;;;;13.10;10.43;;;1.80;99.90;;;;;;5052319;28;20479;-57
2021/01/10 08:58:04;;;;;;;13.23;11.18;;;1.80;99.90;;;;;;5069367;28;20637;-56
2021/01/10 09:00:29;;;;;;;13.02;9.90;;;1.70;99.90;;;;;;5058213;28;20209;-55
2021/01/10 09:03:10;;;;;;;12.70;10.77;;;1.80;99.90;;;;;;5056676;28;20289;-56
2021/01/10 09:05:36;;;;;;;13.75;10.30;;;1.70;99.90;;;;;;5075337;28;21048;-55
2021/01/10 09:08:03;;;;;;;13.63;10.48;;;1.70;99.90;;;;;;5056742;28;20205;-55
2021/01/10 09:10:37;;;;;;;13.05;10.43;;;1.70;99.90;;;;;;5065454;28;20177;-55
2021/01/10 09:13:07;;;;;;;12.90;9.32;;;1.80;99.90;;;;;;5063496;28;20277;-59
2021/01/10 09:15:37;;;;;;;12.25;10.63;;;1.90;99.90;;;;;;5056647;28;20700;-56
2021/01/10 09:18:04;;;;;;;15.45;11.15;;;1.90;99.90;;;;;;5061141;28;20212;-56
2021/01/10 09:20:41;;;;;;;13.57;10.15;;;1.90;99.90;;;;;;5055638;28;20220;-56
2021/01/10 09:23:08;;;;;;;13.73;10.30;;;1.90;99.90;;;;;;5059018;28;20182;-56
2021/01/10 09:25:34;;;;;;;14.90;11.48;;;2.10;99.90;;;;;;5055991;28;20188;-56
2021/01/10 09:28:11;;;;;;;14.70;10.57;;;1.60;99.90;;;;;;5059428;28;20223;-56
2021/01/10 09:30:52;;;;;;;13.90;11.10;;;2.50;99.90;;;;;;5051554;28;20188;-56
2021/01/10 09:33:24;;;;;;;14.63;10.55;;;2.50;99.90;;;;;;5064809;28;20209;-56
2021/01/10 09:35:50;;;;;;;13.50;9.90;;;2.50;99.90;;;;;;5061647;28;20237;-56
2021/01/10 09:38:29;;;;;;;14.18;10.98;;;2.20;99.90;;;;;;5064263;28;20576;-55
2021/01/10 09:41:09;;;;;;;13.05;10.00;;;2.30;99.90;;;;;;5064631;28;20596;-56
2021/01/10 09:43:51;;;;;;;12.85;9.88;;;2.40;99.90;;;;;;5052359;28;20266;-57
2021/01/10 09:46:32;;;;;;;13.07;10.63;;;2.70;99.90;;;;;;5060294;28;20235;-57
2021/01/10 09:49:19;;;;;;;12.75;10.38;;;2.70;99.70;;;;;;5060416;28;20201;-57
2021/01/10 09:52:02;;;;;;;12.40;9.75;;;2.70;99.90;;;;;;5058668;28;20181;-55
2021/01/10 09:54:29;;;;;;;11.85;9.45;;;2.90;99.90;;;;;;5061260;28;20198;-56
2021/01/10 09:57:03;;;;;;;14.68;12.15;;;3.40;99.80;;;;;;5061020;28;20212;-56
2021/01/10 09:59:36;;;;;;;13.57;10.65;;;3.10;99.40;;;;;;5062646;28;20216;-56
2021/01/10 10:02:25;;;;;;;12.95;9.80;;;3.10;99.90;;;;;;5057484;28;20192;-58
2021/01/10 10:05:06;;;;;;;11.68;9.27;;;2.70;99.90;;;;;;5080186;28;20190;-57
2021/01/10 10:07:33;;;;;;;12.50;9.38;;;3.20;99.20;;;;;;5052232;28;20194;-57
2021/01/10 10:10:00;;;;;;;11.82;9.00;;;3.20;98.80;;;;;;5060500;28;20284;-56
2021/01/10 10:12:27;;;;;;;10.43;9.10;;;3.80;98.80;;;;;;5063735;28;20328;-56
2021/01/10 10:14:53;;;;;;;10.82;8.88;;;4.20;97.60;;;;;;5058148;28;20182;-57
2021/01/10 10:17:20;;;;;;;9.77;8.68;;;4.50;96.30;;;;;;5063037;28;20857;-57
2021/01/10 10:19:46;;;;;;;13.85;10.23;;;4.80;95.40;;;;;;5054154;28;20228;-57
2021/01/10 10:22:34;;;;;;;11.98;9.23;;;4.50;95.20;;;;;;5057042;28;20177;-58
2021/01/10 10:25:03;;;;;;;9.90;8.88;;;4.50;95.80;;;;;;5058198;28;20182;-57
2021/01/10 10:27:31;;;;;;;11.60;9.68;;;4.20;95.00;;;;;;5067169;28;20284;-58
2021/01/10 10:29:57;;;;;;;10.40;8.63;;;4.70;95.70;;;;;;5063024;28;20209;-56
2021/01/10 10:32:23;;;;;;;11.35;9.55;;;5.40;94.30;;;;;;5050538;28;20203;-57
2021/01/10 10:34:50;;;;;;;9.85;8.70;;;5.60;93.20;;;;;;5050286;28;20195;-58
2021/01/10 10:37:17;;;;;;;14.10;9.27;;;6.10;92.50;;;;;;5052373;28;20197;-57
2021/01/10 10:39:43;;;;;;;12.10;8.95;;;6.10;91.90;;;;;;5051550;28;20216;-57
2021/01/10 10:42:14;;;;;;;9.68;8.68;;;5.70;92.70;;;;;;5063344;28;20185;-57
2021/01/10 10:44:40;;;;;;;12.05;9.05;;;6.30;91.90;;;;;;5054473;28;20177;-57
2021/01/10 10:47:10;;;;;;;9.90;8.60;;;6.70;90.80;;;;;;5053032;28;20204;-56
2021/01/10 10:49:35;;;;;;;9.30;8.32;;;7.10;89.70;;;;;;5059568;28;20213;-57
2021/01/10 10:52:01;;;;;;;9.13;7.90;;;7.50;87.70;;;;;;5057761;28;20208;-57
2021/01/10 10:54:27;;;;;;;9.60;8.37;;;7.90;85.30;;;;;;5058482;28;20194;-56
2021/01/10 10:56:52;;;;;;;9.80;8.10;;;7.50;84.30;;;;;;5053940;28;20612;-57
2021/01/10 10:59:18;;;;;;;9.23;8.27;;;7.40;84.60;;;;;;5053349;28;20209;-59
2021/01/10 11:01:49;;;;;;;10.77;8.60;;;8.10;85.40;;;;;;5058275;28;20298;-56
2021/01/10 11:04:14;;;;;;;9.45;8.05;;;8.30;81.80;;;;;;5064176;28;21243;-58
2021/01/10 11:06:40;;;;;;;8.83;7.90;;;9.30;79.20;;;;;;5064927;28;20190;-58
2021/01/10 11:09:10;;;;;;;9.87;8.50;;;9.10;78.20;;;;;;5066475;28;20213;-62
2021/01/10 11:11:39;;;;;;;10.05;7.75;;;8.60;79.40;;;;;;5066440;28;20196;-57
2021/01/10 11:14:06;;;;;;;8.00;7.20;;;7.80;79.90;;;;;;5070627;28;20189;-57
2021/01/10 11:16:34;;;;;;;9.48;7.55;;;7.10;81.70;;;;;;5064120;28;20185;-56
2021/01/10 11:19:00;;;;;;;7.97;7.15;;;6.50;83.70;;;;;;5055732;28;20213;-57
2021/01/10 11:21:34;;;;;;;9.80;7.72;;;6.40;85.60;;;;;;5064446;28;20187;-57
2021/01/10 11:24:00;;;;;;;8.57;7.72;;;6.00;87.70;;;;;;5054490;28;20176;-57
2021/01/10 11:26:26;;;;;;;10.63;8.02;;;5.70;88.80;;;;;;5058829;28;20238;-56
2021/01/10 11:28:52;;;;;;;10.52;8.48;;;5.40;89.10;;;;;;5058902;28;20203;-59
2021/01/10 11:31:19;;;;;;;10.83;8.20;;;5.10;90.70;;;;;;5067663;28;20982;-59
2021/01/10 11:33:45;;;;;;;11.98;9.90;;;4.70;93.00;;;;;;5057614;28;20181;-57
2021/01/10 11:36:12;;;;;;;8.65;7.75;;;4.40;95.20;;;;;;5053116;28;20241;-58
2021/01/10 11:38:37;;;;;;;13.35;9.90;;;4.70;94.30;;;;;;5050855;28;20580;-57
2021/01/10 11:41:11;;;;;;;9.00;8.03;;;4.70;96.10;;;;;;5056232;28;20188;-57
2021/01/10 11:43:37;;;;;;;10.13;8.77;;;4.60;95.20;;;;;;5056280;28;20174;-60
2021/01/10 11:46:04;;;;;;;8.75;7.78;;;4.60;93.70;;;;;;5049262;28;21056;-60
2021/01/10 11:48:32;;;;;;;11.05;8.90;;;4.60;94.10;;;;;;5061070;28;20348;-60
2021/01/10 11:50:58;;;;;;;9.13;7.22;;;4.50;94.40;;;;;;5059871;28;20181;-58
2021/01/10 11:53:24;;;;;;;9.75;8.02;;;4.60;93.00;;;;;;5070143;28;20192;-57
2021/01/10 11:55:50;;;;;;;10.40;8.52;;;4.40;94.10;;;;;;5063163;28;20277;-57
2021/01/10 11:58:15;;;;;;;8.07;7.00;;;4.10;94.10;;;;;;5069533;28;20719;-58
2021/01/10 12:00:41;;;;;;;8.57;7.73;;;4.50;93.90;;;;;;5062872;28;20178;-58
2021/01/10 12:03:07;;;;;;;9.47;8.03;;;4.40;93.50;;;;;;5057245;28;20186;-57
2021/01/10 12:05:33;;;;;;;9.50;7.77;;;4.40;93.80;;;;;;5056931;28;20266;-57
2021/01/10 12:08:00;;;;;;;9.43;7.82;;;4.30;94.00;;;;;;5059404;28;20205;-57
2021/01/10 12:10:27;;;;;;;11.43;8.70;;;4.60;93.90;;;;;;5067232;28;20291;-57
2021/01/10 12:12:56;;;;;;;8.90;7.72;;;4.50;93.50;;;;;;5060087;28;20281;-57
2021/01/10 12:15:22;;;;;;;8.73;7.50;;;4.40;93.40;;;;;;5056377;28;20185;-57
2021/01/10 12:17:48;;;;;;;8.35;6.75;;;4.50;93.50;;;;;;5068558;28;20202;-60
2021/01/10 12:20:14;;;;;;;8.63;7.73;;;4.30;93.40;;;;;;5055144;28;20212;-60
2021/01/10 12:22:40;;;;;;;7.70;6.90;;;4.20;93.40;;;;;;5064064;28;20212;-60
2021/01/10 12:25:06;;;;;;;6.40;5.63;;;4.10;93.50;;;;;;5062852;28;20654;-58
2021/01/10 12:27:32;;;;;;;8.27;6.25;;;4.10;93.40;;;;;;5068895;28;20831;-58
2021/01/10 12:29:57;;;;;;;8.77;6.33;;;4.10;93.50;;;;;;5065613;28;20192;-58
2021/01/10 12:32:23;;;;;;;8.23;6.63;;;4.30;94.00;;;;;;5059260;28;20727;-58
2021/01/10 12:34:49;;;;;;;6.70;5.83;;;4.30;93.00;;;;;;5054538;28;20185;-58
2021/01/10 12:37:18;;;;;;;7.37;5.83;;;4.20;93.60;;;;;;5052834;28;20243;-58
2021/01/10 12:39:44;;;;;;;6.40;5.80;;;4.20;94.00;;;;;;5059583;28;20583;-59
2021/01/10 12:42:14;;;;;;;9.33;7.30;;;4.10;93.60;;;;;;5069702;28;20199;-59
2021/01/10 12:44:41;;;;;;;7.18;5.50;;;3.30;93.00;;;;;;5063024;28;20181;-57
2021/01/10 12:47:10;;;;;;;10.55;6.95;;;4.00;94.10;;;;;;5059009;28;20764;-60
2021/01/10 12:49:36;;;;;;;6.53;5.85;;;3.90;94.30;;;;;;5057387;28;20213;-59
2021/01/10 12:52:04;;;;;;;9.30;5.88;;;4.20;93.60;;;;;;5050635;28;20293;-59
2021/01/10 12:54:30;;;;;;;7.07;5.80;;;4.00;93.40;;;;;;5055836;28;20267;-59